createdAt,value
2022-12-23T00:02:13.720Z,2.28
2022-12-23T00:06:17.609Z,1.40
2022-12-23T00:10:19.371Z,1.67
2022-12-23T00:14:39.660Z,2.10
2022-12-23T00:18:42.309Z,2.50
2022-12-23T00:23:02.471Z,2.35
2022-12-23T00:27:04.267Z,2.30
2022-12-23T00:31:07.460Z,1.90
2022-12-23T00:35:09.361Z,1.90
2022-12-23T00:39:31.607Z,2.10
2022-12-23T00:43:33.450Z,1.58
2022-12-23T00:48:07.365Z,1.55
2022-12-23T00:52:12.279Z,1.83
2022-12-23T00:56:14.062Z,1.20
2022-12-23T01:00:16.404Z,1.50
2022-12-23T01:04:36.970Z,1.40
2022-12-23T01:08:39.292Z,1.40
2022-12-23T01:12:41.051Z,1.00
2022-12-23T01:16:44.005Z,1.30
2022-12-23T01:20:45.777Z,1.40
2022-12-23T01:24:47.527Z,1.50
2022-12-23T01:28:54.739Z,2.20
2022-12-23T01:32:56.702Z,1.90
2022-12-23T01:36:58.498Z,2.55
2022-12-23T01:41:00.664Z,3.08
2022-12-23T01:45:14.147Z,3.60
2022-12-23T01:49:15.973Z,3.63
2022-12-23T01:53:31.548Z,3.15
2022-12-23T01:57:35.556Z,2.95
2022-12-23T02:01:57.838Z,2.20
2022-12-23T02:06:22.196Z,2.00
2022-12-23T02:10:32.520Z,1.60
2022-12-23T02:15:24.270Z,1.88
2022-12-23T02:20:05.989Z,1.48
2022-12-23T02:24:29.101Z,2.42
2022-12-23T02:28:55.728Z,3.00
2022-12-23T02:33:21.614Z,3.20
2022-12-23T02:37:40.472Z,4.95
2022-12-23T02:41:57.357Z,4.80
2022-12-23T02:46:34.629Z,5.57
2022-12-23T02:50:38.795Z,5.72
2022-12-23T02:54:51.083Z,5.85
2022-12-23T02:58:58.453Z,5.75
2022-12-23T03:03:00.295Z,6.43
2022-12-23T03:07:07.407Z,5.70
2022-12-23T03:11:13.505Z,6.63
2022-12-23T03:15:37.113Z,5.72
2022-12-23T03:20:23.007Z,4.38
2022-12-23T03:24:37.421Z,5.35
2022-12-23T03:28:59.051Z,7.03
2022-12-23T03:33:16.792Z,5.65
2022-12-23T03:37:21.507Z,5.57
2022-12-23T03:41:31.585Z,4.72
2022-12-23T03:45:40.740Z,3.90
2022-12-23T03:49:52.662Z,4.03
2022-12-23T03:54:01.721Z,5.15
2022-12-23T03:58:21.631Z,4.93
2022-12-23T04:02:59.604Z,3.97
2022-12-23T04:07:17.435Z,4.45
2022-12-23T04:11:19.850Z,4.85
2022-12-23T04:15:23.746Z,4.40
2022-12-23T04:19:25.683Z,4.15
2022-12-23T04:23:27.728Z,3.28
2022-12-23T04:27:29.651Z,4.18
2022-12-23T04:31:32.013Z,4.20
2022-12-23T04:35:34.017Z,4.10
2022-12-23T04:39:35.909Z,4.25
2022-12-23T04:43:37.668Z,3.67
2022-12-23T04:47:40.720Z,3.85
2022-12-23T04:51:43.074Z,2.90
2022-12-23T04:55:49.409Z,4.03
2022-12-23T04:59:51.409Z,3.37
2022-12-23T05:03:53.369Z,3.47
2022-12-23T05:08:03.356Z,3.20
2022-12-23T05:12:05.154Z,2.80
2022-12-23T05:16:07.246Z,3.10
2022-12-23T05:20:09.781Z,3.30
2022-12-23T05:24:12.156Z,2.70
2022-12-23T05:28:14.000Z,2.65
2022-12-23T05:32:15.751Z,2.60
2022-12-23T05:36:17.516Z,2.50
2022-12-23T05:40:23.555Z,2.55
2022-12-23T05:44:29.929Z,2.80
2022-12-23T05:48:31.752Z,3.67
2022-12-23T05:52:33.576Z,2.10
2022-12-23T05:56:35.373Z,2.17
2022-12-23T06:00:38.294Z,3.13
2022-12-23T06:04:40.047Z,2.40
2022-12-23T06:08:41.799Z,2.70
2022-12-23T06:12:43.663Z,2.80
2022-12-23T06:16:45.535Z,3.30
2022-12-23T06:20:47.840Z,3.58
2022-12-23T06:24:50.443Z,3.13
2022-12-23T06:28:52.236Z,2.97
2022-12-23T06:32:54.005Z,3.20
2022-12-23T06:36:55.740Z,3.10
2022-12-23T06:40:57.472Z,3.25
2022-12-23T06:44:59.231Z,3.67
2022-12-23T06:49:00.990Z,3.78
2022-12-23T06:53:02.779Z,3.50
2022-12-23T06:57:04.865Z,3.30
2022-12-23T07:01:06.719Z,3.63
2022-12-23T07:05:09.055Z,3.58
2022-12-23T07:09:11.533Z,3.90
2022-12-23T07:13:13.452Z,3.75
2022-12-23T07:17:15.205Z,3.50
2022-12-23T07:21:26.435Z,3.50
2022-12-23T07:25:28.565Z,3.42
2022-12-23T07:29:30.454Z,3.50
2022-12-23T07:33:32.257Z,3.10
2022-12-23T07:37:34.085Z,3.55
2022-12-23T07:41:35.944Z,3.15
2022-12-23T07:45:41.371Z,3.50
2022-12-23T07:49:43.211Z,2.88
2022-12-23T07:53:49.079Z,3.50
2022-12-23T07:57:51.955Z,2.33
2022-12-23T08:01:53.832Z,2.70
2022-12-23T08:06:09.373Z,2.70
2022-12-23T08:10:11.705Z,2.78
2022-12-23T08:14:13.439Z,2.80
2022-12-23T08:18:15.175Z,2.83
2022-12-23T08:22:17.020Z,3.03
2022-12-23T08:26:24.055Z,2.92
2022-12-23T08:34:27.541Z,2.42
2022-12-23T08:38:29.415Z,2.42
2022-12-23T08:42:31.191Z,2.55
2022-12-23T08:46:33.202Z,2.35
2022-12-23T08:50:42.517Z,2.40
2022-12-23T08:54:44.285Z,2.63
2022-12-23T08:58:47.976Z,2.95
2022-12-23T09:02:49.849Z,3.40
2022-12-23T09:06:51.646Z,3.20
2022-12-23T09:10:53.386Z,2.97
2022-12-23T09:14:55.137Z,2.75
2022-12-23T09:18:57.267Z,2.90
2022-12-23T09:23:01.503Z,2.50
2022-12-23T09:27:03.335Z,3.00
2022-12-23T09:31:12.631Z,2.20
2022-12-23T09:35:14.535Z,2.47
2022-12-23T09:39:16.688Z,2.35
2022-12-23T09:43:37.110Z,2.30
2022-12-23T09:47:41.441Z,2.20
2022-12-23T09:51:44.014Z,2.08
2022-12-23T09:55:45.809Z,2.00
2022-12-23T10:00:13.152Z,2.00
2022-12-23T10:04:36.281Z,2.10
2022-12-23T10:08:45.011Z,2.10
2022-12-23T10:12:52.555Z,2.10
2022-12-23T10:17:00.200Z,2.00
2022-12-23T10:21:08.824Z,2.00
2022-12-23T10:25:28.573Z,2.22
2022-12-23T10:29:32.618Z,2.08
2022-12-23T10:33:56.109Z,1.90
2022-12-23T10:38:07.878Z,1.80
2022-12-23T10:42:25.407Z,1.65
2022-12-23T10:46:27.149Z,1.80
2022-12-23T10:50:34.583Z,1.73
2022-12-23T10:54:37.371Z,1.77
2022-12-23T10:58:43.792Z,1.52
2022-12-23T11:03:16.152Z,1.40
2022-12-23T11:12:01.515Z,1.60
2022-12-23T11:16:17.379Z,1.33
2022-12-23T11:20:20.176Z,2.50
2022-12-23T11:24:22.907Z,2.90
2022-12-23T11:28:24.772Z,5.75
2022-12-23T11:32:28.749Z,7.30
2022-12-23T11:36:32.476Z,5.45
2022-12-23T11:40:37.801Z,9.75
2022-12-23T11:44:44.614Z,4.72
2022-12-23T11:48:50.138Z,3.10
2022-12-23T11:53:04.546Z,2.30
2022-12-23T11:57:16.239Z,2.10
2022-12-23T12:01:23.127Z,2.42
2022-12-23T12:05:25.354Z,1.95
2022-12-23T12:09:30.046Z,2.50
2022-12-23T12:13:39.607Z,2.08
2022-12-23T12:17:48.442Z,2.53
2022-12-23T12:21:54.169Z,1.73
2022-12-23T12:26:04.713Z,2.00
2022-12-23T12:30:12.512Z,2.38
2022-12-23T12:34:52.795Z,1.88
2022-12-23T12:38:57.440Z,1.40
2022-12-23T12:43:17.482Z,1.30
2022-12-23T12:47:52.902Z,1.42
2022-12-23T12:52:13.033Z,1.40
2022-12-23T12:56:45.346Z,1.75
2022-12-23T13:00:59.791Z,1.90
2022-12-23T13:05:38.711Z,1.58
2022-12-23T13:09:55.783Z,1.90
2022-12-23T13:14:18.577Z,1.48
2022-12-23T13:18:49.334Z,1.80
2022-12-23T13:23:14.947Z,1.50
2022-12-23T13:27:35.241Z,1.65
2022-12-23T13:31:44.664Z,1.10
2022-12-23T13:36:07.958Z,1.80
2022-12-23T13:40:26.262Z,4.35
2022-12-23T13:44:30.127Z,9.73
2022-12-23T13:48:46.625Z,6.20
2022-12-23T13:53:06.139Z,3.22
2022-12-23T13:57:40.158Z,5.90
2022-12-23T14:01:41.992Z,3.05
2022-12-23T14:05:45.406Z,2.20
2022-12-23T14:09:54.974Z,1.63
2022-12-23T14:14:00.755Z,1.77
2022-12-23T14:18:08.734Z,1.67
2022-12-23T14:22:36.443Z,1.67
2022-12-23T14:27:01.891Z,2.17
2022-12-23T14:31:05.706Z,2.08
2022-12-23T14:35:40.272Z,2.72
2022-12-23T14:39:44.380Z,2.20
2022-12-23T14:43:46.076Z,2.40
2022-12-23T14:47:47.958Z,2.38
2022-12-23T14:51:52.357Z,2.25
2022-12-23T14:56:12.704Z,1.60
2022-12-23T15:00:14.727Z,1.73
2022-12-23T15:04:29.579Z,1.60
2022-12-23T15:08:36.373Z,1.30
2022-12-23T15:12:40.551Z,1.30
2022-12-23T15:16:45.215Z,1.38
2022-12-23T15:21:09.797Z,1.85
2022-12-23T15:25:31.624Z,1.85
2022-12-23T15:29:33.451Z,1.40
2022-12-23T15:34:02.169Z,1.70
2022-12-23T15:38:00.526Z,1.30
2022-12-23T15:42:02.283Z,1.00
2022-12-23T15:46:29.599Z,0.93
2022-12-23T15:50:41.848Z,0.88
2022-12-23T15:55:13.591Z,4.28
2022-12-23T15:59:25.503Z,3.15
2022-12-23T16:03:34.819Z,2.63
2022-12-23T16:07:42.167Z,2.10
2022-12-23T16:16:33.623Z,2.17
2022-12-23T16:20:41.886Z,2.42
2022-12-23T16:24:48.455Z,1.70
2022-12-23T16:28:58.055Z,1.73
2022-12-23T16:33:02.454Z,1.85
2022-12-23T16:37:04.198Z,1.50
2022-12-23T16:41:05.964Z,1.60
2022-12-23T16:45:12.260Z,1.50
2022-12-23T16:49:19.951Z,1.60
2022-12-23T16:53:21.808Z,1.80
2022-12-23T16:57:23.593Z,1.50
2022-12-23T17:01:29.759Z,1.58
2022-12-23T17:05:32.065Z,1.93
2022-12-23T17:09:33.834Z,1.70
2022-12-23T17:13:35.608Z,1.58
2022-12-23T17:17:38.312Z,1.77
2022-12-23T17:21:42.005Z,1.50
2022-12-23T17:25:43.833Z,1.30
2022-12-23T17:29:45.587Z,1.77
2022-12-23T17:33:47.396Z,1.67
2022-12-23T17:37:49.398Z,1.40
2022-12-23T17:41:51.403Z,1.70
2022-12-23T17:45:53.325Z,2.00
2022-12-23T17:49:55.138Z,1.67
2022-12-23T17:53:58.323Z,1.50
2022-12-23T17:58:00.258Z,1.85
2022-12-23T18:02:23.367Z,1.60
2022-12-23T18:06:27.291Z,1.63
2022-12-23T18:10:39.537Z,1.70
2022-12-23T18:14:41.360Z,1.50
2022-12-23T18:18:46.540Z,1.75
2022-12-23T18:22:51.562Z,1.42
2022-12-23T18:26:53.331Z,1.58
2022-12-23T18:30:56.908Z,1.50
2022-12-23T18:34:58.869Z,1.50
2022-12-23T18:39:00.653Z,1.40
2022-12-23T18:43:02.527Z,1.30
2022-12-23T18:47:04.480Z,1.30
2022-12-23T18:51:06.565Z,1.58
2022-12-23T18:55:12.339Z,1.73
2022-12-23T18:59:27.173Z,2.08
2022-12-23T19:03:31.734Z,2.28
2022-12-23T19:07:34.447Z,1.90
2022-12-23T19:11:36.220Z,2.03
2022-12-23T19:15:38.047Z,2.55
2022-12-23T19:19:40.010Z,1.70
2022-12-23T19:23:42.347Z,1.70
2022-12-23T19:27:45.727Z,1.70
2022-12-23T19:31:47.568Z,1.38
2022-12-23T19:35:49.559Z,1.52
2022-12-23T19:39:52.100Z,1.63
2022-12-23T19:43:53.859Z,1.48
2022-12-23T19:47:55.636Z,1.40
2022-12-23T19:51:57.505Z,1.83
2022-12-23T19:56:14.347Z,1.40
2022-12-23T20:00:16.372Z,1.42
2022-12-23T20:04:18.206Z,1.38
2022-12-23T20:08:19.958Z,1.20
2022-12-23T20:12:21.693Z,1.20
2022-12-23T20:16:23.659Z,1.30
2022-12-23T20:20:26.997Z,1.20
2022-12-23T20:24:28.837Z,1.40
2022-12-23T20:28:31.330Z,1.20
2022-12-23T20:32:33.135Z,1.20
2022-12-23T20:36:36.536Z,1.33
2022-12-23T20:40:38.352Z,1.20
2022-12-23T20:44:40.107Z,1.27
2022-12-23T20:48:42.200Z,1.10
2022-12-23T20:52:44.204Z,1.20
2022-12-23T20:56:45.999Z,1.10
2022-12-23T21:00:48.189Z,1.10
2022-12-23T21:04:49.936Z,0.63
2022-12-23T21:08:52.372Z,0.60
2022-12-23T21:12:54.160Z,0.90
2022-12-23T21:16:56.048Z,0.70
2022-12-23T21:20:59.932Z,0.95
2022-12-23T21:25:01.826Z,0.88
2022-12-23T21:29:06.997Z,0.80
2022-12-23T21:33:08.767Z,0.90
2022-12-23T21:37:10.535Z,0.80
2022-12-23T21:41:15.945Z,0.95
2022-12-23T21:45:17.699Z,0.60
2022-12-23T21:49:20.633Z,0.60
2022-12-23T21:53:22.435Z,0.70
2022-12-23T21:57:24.208Z,0.82
2022-12-23T22:01:26.862Z,0.80
2022-12-23T22:05:28.751Z,0.88
2022-12-23T22:09:32.650Z,0.88
2022-12-23T22:13:34.560Z,1.02
2022-12-23T22:17:36.297Z,1.02
2022-12-23T22:21:39.763Z,1.00
2022-12-23T22:25:41.834Z,0.88
2022-12-23T22:29:43.609Z,0.80
2022-12-23T22:33:45.857Z,1.13
2022-12-23T22:37:47.641Z,1.20
2022-12-23T22:41:50.733Z,0.80
2022-12-23T22:46:00.362Z,1.00
2022-12-23T22:50:02.244Z,0.98
2022-12-23T22:54:04.150Z,0.90
2022-12-23T22:58:05.974Z,1.08
2022-12-23T23:02:07.800Z,0.90
2022-12-23T23:06:10.803Z,0.90
2022-12-23T23:10:12.707Z,0.70
2022-12-23T23:14:15.034Z,0.80
2022-12-23T23:18:16.812Z,0.98
2022-12-23T23:22:20.356Z,0.88
2022-12-23T23:26:26.753Z,0.90
2022-12-23T23:30:28.537Z,0.77
2022-12-23T23:34:30.366Z,0.90
2022-12-23T23:38:32.190Z,0.90
2022-12-23T23:42:33.984Z,1.00
2022-12-23T23:46:35.915Z,0.90
2022-12-23T23:50:38.555Z,1.10
2022-12-23T23:54:40.367Z,0.80
2022-12-23T23:58:42.638Z,1.00
